Chadstone Weather > Observations for 04/10/20

Select Day:



Observations
Time Temp Hum DP Wind Gust Dir Rain >9am Press
C % C kph kph mm hPa
00:00 18.2 67 12.0 0.4 2.5 W 0.0 1021.2
00:10 18.0 68 12.0 0.6 8.6 WSW 0.0 1021.0
00:20 18.0 69 12.2 4.6 8.6 WSW 0.0 1021.0
00:30 17.7 71 12.4 3.9 8.6 NW 0.0 1020.8
00:40 17.6 72 12.5 3.3 8.6 W 0.0 1020.6
00:50 17.3 73 12.4 2.5 7.2 WNW 0.0 1020.2
01:00 17.3 74 12.6 1.8 5.0 W 0.0 1020.1
01:10 17.2 74 12.5 2.8 7.2 W 0.0 1019.9
01:20 17.1 74 12.4 2.4 6.1 NW 0.0 1019.6
01:30 17.1 75 12.6 0.7 3.6 NNW 0.0 1019.5
01:40 16.8 76 12.6 1.7 5.0 NW 0.0 1019.5
01:50 16.8 76 12.6 1.6 6.1 NNW 0.0 1019.3
03:00 16.8 76 12.6 0.8 5.0 N 0.0 1019.2
03:10 16.5 77 12.5 1.4 5.0 NW 0.0 1019.2
03:20 16.5 77 12.5 1.8 5.0 NNW 0.0 1019.2
03:30 16.4 78 12.6 2.0 5.0 NNW 0.0 1019.2
03:40 16.3 78 12.5 1.4 5.0 WNW 0.0 1019.4
03:50 16.4 79 12.8 1.8 5.0 W 0.0 1019.2
04:00 16.5 79 12.9 1.1 3.6 NNE 0.0 1019.3
04:10 16.5 79 12.9 1.4 5.0 N 0.0 1019.0
04:20 16.7 79 13.0 2.6 6.1 N 0.0 1018.7
04:30 16.7 79 13.0 3.3 6.1 N 0.0 1018.6
04:40 16.7 78 12.9 2.9 6.1 NNE 0.0 1018.5
04:50 16.8 78 13.0 2.3 6.1 N 0.0 1018.4
05:00 16.9 77 12.9 3.6 8.6 N 0.0 1018.5
05:10 17.4 72 12.3 5.6 9.7 N 0.0 1018.4
05:20 17.8 69 12.0 5.6 9.7 NNW 0.0 1018.3
05:30 18.0 67 11.8 6.4 11.2 N 0.0 1018.2
05:40 18.4 65 11.7 6.6 14.8 NW 0.0 1018.3
05:50 18.4 64 11.5 4.2 9.7 NNW 0.0 1018.4
06:00 18.3 64 11.4 0.4 5.0 NNW 0.0 1018.7
06:10 17.9 64 11.0 0.8 3.6 SSE 0.0 1018.7
06:20 17.5 65 10.9 0.9 3.6 SSE 0.0 1018.7
06:30 17.4 66 11.0 0.9 3.6 SE 0.0 1018.9
06:40 17.2 68 11.3 0.3 2.5 S 0.0 1018.9
06:50 17.0 70 11.5 0.4 2.5 S 0.0 1018.9
07:00 16.8 71 11.5 0.1 2.5 S 0.0 1018.9
07:10 16.6 72 11.5 0.6 2.5 S 0.0 1019.1
07:20 16.5 73 11.7 1.1 3.6 S 0.0 1019.1
07:30 16.6 73 11.7 0.9 3.6 SSE 0.0 1019.0
07:40 16.9 74 12.2 0.1 2.5 S 0.0 1018.9
07:50 17.2 73 12.3 1.1 3.6 S 0.0 1019.0
08:00 17.7 72 12.6 1.0 3.6 SSW 0.0 1019.1
08:10 18.1 72 13.0 0.9 3.6 SSW 0.0 1019.2
08:20 18.4 71 13.1 0.2 3.6 SW 0.0 1019.2
08:30 18.9 71 13.5 0.3 2.5 N 0.0 1019.1
08:40 19.0 70 13.4 0.0 1.1 N 0.0 1019.5
08:50 19.0 69 13.2 0.2 2.5 WNW 0.0 1019.4
09:00 19.0 67 12.7 1.1 6.1 WNW 0.0 1019.6
09:10 19.1 68 13.1 0.2 3.6 WSW 0.0 1019.7
09:20 19.0 66 12.5 1.5 5.0 WSW 0.0 1019.4
09:30 19.0 66 12.5 0.0 1.1 SW 0.0 1019.5
09:40 19.2 67 12.9 0.5 5.0 WSW 0.0 1019.7
09:50 19.2 67 12.9 1.5 8.6 SW 0.0 1019.6
10:00 19.1 68 13.1 1.5 5.0 SW 0.0 1019.7
10:10 19.4 68 13.4 1.0 5.0 SW 0.0 1019.5
10:20 19.4 67 13.1 2.5 7.2 SSW 0.0 1019.3
10:30 19.5 67 13.2 2.8 7.2 S 0.0 1019.3
10:40 19.7 67 13.4 2.3 6.1 SW 0.0 1019.6
10:50 19.9 67 13.6 1.9 5.0 S 0.0 1019.3
11:00 20.3 66 13.8 1.7 5.0 SSW 0.0 1018.9
11:10 20.8 64 13.8 4.1 7.2 ENE 0.0 1018.5
11:20 21.4 62 13.8 6.0 11.2 NE 0.0 1018.1
11:30 22.0 55 12.6 7.5 14.8 NE 0.0 1017.7
11:40 22.1 55 12.7 5.9 12.2 NE 0.0 1017.5
11:50 22.3 52 12.0 7.9 13.3 NNW 0.0 1018.1
12:00 22.2 53 12.2 6.4 13.3 NW 0.0 1017.5
12:10 22.3 52 12.0 5.5 12.2 NNW 0.0 1018.1
12:20 22.5 52 12.2 5.1 12.2 NNW 0.0 1018.3
12:30 22.5 51 11.9 7.6 13.3 NW 0.0 1018.3
12:40 22.6 48 11.0 6.9 17.3 NW 0.0 1017.9
12:50 22.7 47 10.8 7.0 14.8 NNW 0.0 1017.6
13:00 23.0 46 10.8 9.0 14.8 NNW 0.0 1017.5
13:10 23.1 47 11.2 8.5 18.4 NW 0.0 1017.4
13:20 23.1 48 11.5 5.7 11.2 NNW 0.0 1017.2
13:30 23.2 48 11.6 5.2 12.2 NNW 0.0 1016.8
13:40 23.6 47 11.6 8.0 15.8 N 0.0 1016.6
13:50 23.9 47 11.9 8.9 19.4 N 0.0 1016.5
14:00 24.2 46 11.9 10.1 22.0 N 0.0 1016.1
14:10 24.5 46 12.1 12.1 20.9 N 0.0 1016.0
14:20 25.4 45 12.6 13.5 24.5 N 0.0 1015.7
14:30 25.9 44 12.7 13.8 27.0 NNW 0.0 1015.3
14:40 26.1 43 12.6 12.4 22.0 NNW 0.0 1015.0
14:50 26.3 43 12.7 14.9 24.5 NNE 0.0 1014.8
15:00 27.5 42 13.5 16.1 27.0 N 0.0 1014.2
15:10 28.0 42 13.9 15.1 34.2 N 0.0 1013.9
15:20 28.1 41 13.6 18.1 34.2 N 0.0 1013.8
15:30 28.1 41 13.6 17.0 34.2 N 0.0 1013.6
15:40 28.2 41 13.7 16.2 36.7 N 0.0 1013.4
15:50 28.4 40 13.5 17.5 31.7 NNW 0.0 1013.3
16:00 28.6 39 13.3 19.7 29.5 NNW 0.0 1013.2
16:10 28.5 41 14.0 13.6 29.5 N 0.0 1013.1
16:20 28.4 41 13.9 14.4 27.0 NNW 0.0 1013.0
16:30 28.4 39 13.1 16.6 34.2 N 0.0 1013.0
16:40 28.4 38 12.7 17.0 35.6 N 0.0 1012.9
16:50 28.3 40 13.4 16.5 29.5 NNW 0.0 1012.9
17:00 28.2 40 13.3 15.9 33.1 N 0.0 1012.8
17:10 28.2 41 13.7 15.8 27.0 N 0.0 1012.7
17:20 28.2 41 13.7 12.6 28.1 N 0.0 1012.7
17:30 28.2 43 14.5 13.7 24.5 NNE 0.0 1012.5
17:40 28.3 45 15.3 13.6 24.5 NNW 0.0 1012.5
17:50 28.4 45 15.3 12.7 25.6 NNE 0.0 1012.4
18:00 28.5 45 15.4 12.1 27.0 NNE 0.0 1012.5
18:10 28.3 45 15.3 12.1 27.0 N 0.0 1012.6
18:20 28.2 46 15.5 10.1 27.0 N 0.0 1012.6
18:30 27.9 44 14.5 7.8 23.4 N 0.0 1014.0
18:40 22.3 55 12.8 7.4 19.4 E 0.0 1014.3
18:50 20.4 63 13.1 8.3 19.4 SSE 0.0 1015.0
19:00 18.9 71 13.5 6.3 17.3 SW 0.0 1015.1
19:10 17.8 75 13.3 4.9 12.2 S 0.0 1015.7
19:20 17.5 76 13.2 5.2 9.7 SW 0.0 1015.1
19:30 17.5 76 13.2 6.1 9.7 SW 0.0 1016.4
19:40 17.5 76 13.2 6.1 9.7 SW 0.0 1015.0
19:50 17.5 76 13.2 6.1 9.7 SW 0.0 1016.2
20:00 17.5 76 13.2 6.1 9.7 SW 0.0 1016.7
20:10 17.5 76 13.2 6.1 9.7 SW 0.0 1016.9
20:20 17.5 76 13.2 6.1 9.7 SW 0.0 1016.4
20:30 17.5 76 13.2 6.1 9.7 SW 0.0 1016.6
20:40 17.5 76 13.2 6.1 9.7 SW 0.0 1016.8
20:50 17.5 76 13.2 6.1 9.7 SW 0.0 1017.0
21:00 15.6 88 13.6 3.6 6.1 S 0.9 1017.3
21:10 15.5 88 13.5 4.4 8.6 SE 0.9 1017.4
21:20 15.3 88 13.3 3.9 9.7 SSW 0.9 1017.9
21:30 15.3 89 13.5 4.9 13.3 NW 0.9 1017.9
21:40 15.2 89 13.4 3.8 13.3 SSW 0.9 1019.0
21:50 15.1 89 13.3 2.6 11.2 SSW 0.9 1019.3
22:00 15.0 89 13.2 3.8 9.7 S 0.9 1019.7
22:10 14.7 91 13.3 4.1 19.4 SSW 0.9 1019.4
22:20 14.7 91 13.3 3.1 7.2 SSW 0.9 1020.6
22:30 14.7 91 13.3 2.5 5.0 SW 0.9 1019.8
22:40 14.7 91 13.3 2.5 5.0 SW 0.9 1019.5
22:50 14.7 91 13.3 2.5 5.0 SW 0.9 1019.7
23:00 14.7 91 13.3 2.5 5.0 SW 0.9 1019.7
23:10 14.7 91 13.3 2.5 5.0 SW 0.9 1020.1
23:20 14.7 91 13.3 2.5 5.0 SW 0.9 1020.3
23:30 13.6 95 12.8 5.0 12.2 S 0.9 1020.3
23:40 13.6 95 12.8 5.0 12.2 S 0.9 1020.6
23:50 13.6 95 12.8 5.0 12.2 S 0.9 1020.6